Time;durP1;ratioP1;P1;durP2;ratioP2;P2;SDS_P1;SDS_P2;PMS_P1;PMS_P2;Temp;Humidity;BMP_temperature;BMP_pressure;BME280_temperature;BME280_humidity;BME280_pressure;Samples;Min_cycle;Max_cycle;Signal;HPM_P1;HPM_P2
2023/11/02 00:03:30;;;;;;;25.40;17.10;;;;;;;6.29;85.38;97854.36;224316;1292;22560;-81
2023/11/02 00:08:38;;;;;;;24.00;17.30;;;;;;;6.34;85.73;97846.90;224306;1286;22563;-82
2023/11/02 00:13:42;;;;;;;26.20;17.40;;;;;;;6.37;85.69;97839.08;224506;1292;22555;-81
2023/11/02 00:18:47;;;;;;;18.90;14.40;;;;;;;6.36;85.60;97834.25;224478;1292;24272;-81
2023/11/02 00:23:50;;;;;;;22.50;14.90;;;;;;;6.34;85.33;97829.75;224517;1276;24940;-81
2023/11/02 00:28:54;;;;;;;35.10;15.90;;;;;;;6.34;85.70;97821.52;224458;1287;22636;-82
2023/11/02 00:34:00;;;;;;;24.70;15.20;;;;;;;6.37;85.80;97815.86;224375;1292;22562;-80
2023/11/02 00:39:05;;;;;;;23.50;14.70;;;;;;;6.33;85.55;97820.45;224365;1292;22555;-82
2023/11/02 00:44:12;;;;;;;24.80;15.70;;;;;;;6.29;85.64;97820.36;224324;1292;22581;-80
2023/11/02 00:49:29;;;;;;;22.20;16.30;;;;;;;6.29;85.62;97821.13;224525;1292;22566;-81
2023/11/02 00:54:41;;;;;;;23.20;16.20;;;;;;;6.26;85.79;97810.96;224366;1292;22567;-82
2023/11/02 00:59:45;;;;;;;20.00;14.90;;;;;;;6.21;85.60;97804.98;224671;1292;22655;-81
2023/11/02 01:04:56;;;;;;;21.30;15.00;;;;;;;6.17;85.98;97797.35;224629;1289;22560;-82
2023/11/02 01:10:05;;;;;;;23.70;16.70;;;;;;;6.12;85.76;97786.92;224600;1289;22552;-81
2023/11/02 01:15:29;;;;;;;24.50;16.00;;;;;;;6.07;85.90;97779.20;224497;1292;22563;-81
2023/11/02 01:20:43;;;;;;;22.80;16.20;;;;;;;6.01;85.90;97776.02;224336;1292;22559;-81
2023/11/02 01:25:50;;;;;;;20.10;14.40;;;;;;;5.96;85.52;97770.52;224609;1289;22580;-81
2023/11/02 01:31:22;;;;;;;21.30;15.60;;;;;;;5.87;85.79;97763.80;224480;1291;22608;-81
2023/11/02 01:36:38;;;;;;;21.00;15.30;;;;;;;5.76;85.91;97764.67;224310;1292;22576;-81
2023/11/02 01:41:48;;;;;;;21.80;15.80;;;;;;;5.68;86.14;97758.27;224467;1292;22587;-80
2023/11/02 01:47:05;;;;;;;21.20;15.50;;;;;;;5.65;86.19;97754.41;224280;1292;260339;-79
2023/11/02 01:52:27;;;;;;;21.60;15.00;;;;;;;5.70;86.52;97754.27;224624;1292;22615;-80
2023/11/02 01:57:54;;;;;;;21.00;15.70;;;;;;;5.69;86.35;97750.91;224589;1290;22559;-80
2023/11/02 02:03:02;;;;;;;20.10;13.80;;;;;;;5.68;86.73;97746.77;224444;1291;23028;-80
2023/11/02 02:08:16;;;;;;;21.60;14.10;;;;;;;5.67;86.70;97740.93;224590;1288;22575;-80
2023/11/02 02:13:43;;;;;;;19.50;14.20;;;;;;;5.65;86.66;97737.54;224477;1292;22818;-81
2023/11/02 02:18:51;;;;;;;16.90;12.70;;;;;;;5.64;86.66;97734.72;224486;1292;25284;-81
2023/11/02 02:24:03;;;;;;;17.60;13.10;;;;;;;5.62;86.45;97723.27;224575;1290;22584;-81
2023/11/02 02:29:32;;;;;;;17.40;12.40;;;;;;;5.60;86.75;97715.23;224506;1290;22564;-82
2023/11/02 02:35:03;;;;;;;17.10;12.30;;;;;;;5.63;87.11;97703.77;224409;1292;22575;-81
2023/11/02 02:40:10;;;;;;;17.60;13.10;;;;;;;5.59;86.46;97701.21;224564;1289;22602;-81
2023/11/02 02:45:14;;;;;;;15.80;12.70;;;;;;;5.58;86.70;97703.26;224482;1289;22574;-80
2023/11/02 02:50:21;;;;;;;18.60;13.60;;;;;;;5.60;86.79;97692.69;224487;1282;22591;-81
2023/11/02 02:55:27;;;;;;;18.20;13.10;;;;;;;5.62;87.09;97688.07;224564;1292;22654;-80
2023/11/02 03:00:32;;;;;;;17.70;12.70;;;;;;;5.64;87.32;97686.95;224422;1292;22563;-79
2023/11/02 03:05:36;;;;;;;15.00;12.70;;;;;;;5.63;86.83;97686.23;224541;1289;22567;-80
2023/11/02 03:10:41;;;;;;;14.70;11.50;;;;;;;5.65;87.20;97681.41;224569;1292;22587;-79
2023/11/02 03:15:48;;;;;;;14.10;11.70;;;;;;;5.73;87.06;97675.61;224349;1292;22602;-78
2023/11/02 03:20:51;;;;;;;12.80;10.70;;;;;;;5.78;87.42;97667.73;224330;1292;22571;-80
2023/11/02 03:26:04;;;;;;;14.40;10.90;;;;;;;5.84;87.44;97665.00;224430;1292;22660;-79
2023/11/02 03:31:30;;;;;;;14.50;9.70;;;;;;;5.87;87.33;97664.84;224314;1292;23005;-81
2023/11/02 03:36:57;;;;;;;;;;;;;;;;;;;;;
2023/11/02 03:42:28;;;;;;;12.70;9.50;;;;;;;5.90;87.55;97648.39;224533;1292;24259;-80
2023/11/02 03:47:55;;;;;;;13.90;10.00;;;;;;;5.95;87.33;97631.40;224577;1292;24238;-80
2023/11/02 03:53:09;;;;;;;12.00;9.00;;;;;;;5.99;87.24;97623.33;224631;1271;22556;-82
2023/11/02 03:58:39;;;;;;;11.70;9.10;;;;;;;5.97;87.06;97615.73;224568;1292;22555;-81
2023/11/02 04:03:48;;;;;;;11.90;9.30;;;;;;;5.97;87.41;97606.61;224558;1289;22656;-80
2023/11/02 04:08:55;;;;;;;12.20;8.80;;;;;;;6.03;87.63;97600.88;224478;1292;22570;-80
2023/11/02 04:14:11;;;;;;;10.80;7.80;;;;;;;6.09;87.68;97598.38;224469;1292;22563;-81
2023/11/02 04:19:14;;;;;;;10.30;8.20;;;;;;;6.17;87.92;97593.36;224584;1292;22603;-80
2023/11/02 04:24:17;;;;;;;10.40;8.30;;;;;;;6.21;87.57;97600.02;224406;1292;22607;-80
2023/11/02 04:29:19;;;;;;;10.70;8.20;;;;;;;6.28;87.72;97590.95;224425;1289;24210;-80
2023/11/02 04:34:22;;;;;;;9.50;8.10;;;;;;;6.40;87.97;97581.91;224466;1292;22569;-79
2023/11/02 04:39:24;;;;;;;10.40;8.90;;;;;;;6.45;87.60;97570.12;224438;1292;22559;-79
2023/11/02 04:44:28;;;;;;;10.40;8.30;;;;;;;6.50;87.53;97559.70;224482;1292;23410;-80
2023/11/02 04:49:34;;;;;;;11.50;9.30;;;;;;;6.55;87.71;97546.41;224472;1292;24960;-80
2023/11/02 04:54:37;;;;;;;11.60;8.70;;;;;;;6.57;87.04;97551.63;224435;1282;25435;-81
2023/11/02 04:59:42;;;;;;;10.40;8.60;;;;;;;6.60;87.58;97543.66;224443;1292;22568;-80
2023/11/02 05:04:45;;;;;;;12.10;8.80;;;;;;;6.64;87.51;97538.48;224435;1292;22555;-81
2023/11/02 05:09:47;;;;;;;12.10;8.30;;;;;;;6.70;87.26;97530.48;224537;1289;22557;-81
2023/11/02 05:15:07;;;;;;;13.00;8.40;;;;;;;6.81;87.33;97517.40;224420;1292;24239;-81
2023/11/02 05:20:21;;;;;;;12.60;8.30;;;;;;;6.86;86.76;97511.77;224433;1292;22610;-81
2023/11/02 05:25:33;;;;;;;10.40;7.90;;;;;;;6.88;87.07;97505.11;224589;1290;22567;-81
2023/11/02 05:30:39;;;;;;;11.90;7.90;;;;;;;6.95;87.28;97492.91;224488;1292;22570;-81
2023/11/02 05:35:42;;;;;;;10.70;8.40;;;;;;;6.96;87.05;97485.05;224549;1286;22637;-79
2023/11/02 05:40:47;;;;;;;10.60;8.10;;;;;;;6.96;86.90;97478.02;224446;1292;25353;-76
2023/11/02 05:45:50;;;;;;;9.50;7.40;;;;;;;6.94;87.09;97475.98;224345;1291;22555;-78
2023/11/02 05:50:53;;;;;;;9.40;6.80;;;;;;;6.99;87.11;97467.98;224339;1292;22554;-79
2023/11/02 05:55:58;;;;;;;9.50;6.00;;;;;;;7.05;87.20;97467.61;224535;1292;23657;-80
2023/11/02 06:01:01;;;;;;;6.60;5.10;;;;;;;7.16;87.37;97466.66;224419;1292;22556;-80
2023/11/02 06:06:05;;;;;;;6.80;5.60;;;;;;;7.23;86.91;97464.88;224370;1292;22565;-80
2023/11/02 06:11:08;;;;;;;7.60;5.50;;;;;;;7.27;86.95;97458.00;224337;1292;22611;-81
2023/11/02 06:16:11;;;;;;;7.80;5.60;;;;;;;7.36;87.22;97472.09;224305;1292;22681;-81
2023/11/02 06:21:13;;;;;;;7.70;5.30;;;;;;;7.46;87.38;97473.80;224457;1292;22682;-79
2023/11/02 06:26:18;;;;;;;6.80;5.40;;;;;;;7.61;86.70;97472.67;224474;1290;23625;-80
2023/11/02 06:31:21;;;;;;;6.30;5.50;;;;;;;7.69;86.53;97472.88;224449;1292;22576;-81
2023/11/02 06:36:27;;;;;;;8.20;5.90;;;;;;;7.76;86.49;97468.23;224420;1292;22559;-81
2023/11/02 06:41:29;;;;;;;9.20;5.80;;;;;;;7.84;86.58;97460.93;224447;1292;22555;-79
2023/11/02 06:46:32;;;;;;;8.70;5.30;;;;;;;7.91;86.05;97451.92;224407;1292;25493;-79
2023/11/02 06:51:37;;;;;;;9.00;5.90;;;;;;;8.00;86.09;97444.18;223938;1284;22572;-82
2023/11/02 06:56:40;;;;;;;7.90;6.00;;;;;;;8.12;86.11;97440.25;223989;1289;22557;-79
2023/11/02 07:01:44;;;;;;;8.40;6.10;;;;;;;8.20;85.59;97439.73;223992;1279;22575;-81
2023/11/02 07:06:47;;;;;;;13.50;7.50;;;;;;;8.31;85.91;97432.45;224179;1270;22556;-81
2023/11/02 07:11:50;;;;;;;7.10;5.50;;;;;;;8.48;86.12;97424.73;224215;1283;22658;-81
2023/11/02 07:17:15;;;;;;;11.10;6.70;;;;;;;8.72;86.21;97415.80;224166;1272;22566;-81
2023/11/02 07:22:40;;;;;;;9.60;6.90;;;;;;;8.95;85.99;97413.54;223973;1270;22567;-82
2023/11/02 07:27:56;;;;;;;12.60;6.50;;;;;;;9.14;85.72;97409.48;223899;1270;22575;-80
2023/11/02 07:32:59;;;;;;;10.00;6.40;;;;;;;9.29;85.61;97400.02;223901;1270;22570;-81
2023/11/02 07:38:02;;;;;;;7.10;4.90;;;;;;;9.45;85.39;97385.38;223673;1280;22651;-78
2023/11/02 07:43:15;;;;;;;7.00;4.60;;;;;;;9.56;85.16;97374.27;223526;1270;22572;-80
2023/11/02 07:48:21;;;;;;;7.80;4.50;;;;;;;9.73;85.08;97373.54;223669;1279;22574;-80
2023/11/02 07:53:26;;;;;;;5.90;4.10;;;;;;;9.95;85.09;97362.48;223814;1283;22971;-77
2023/11/02 07:58:42;;;;;;;6.20;4.20;;;;;;;10.25;84.78;97361.18;223697;1286;24262;-79
2023/11/02 08:03:45;;;;;;;6.50;3.90;;;;;;;10.55;84.53;97351.52;223865;1273;22614;-79
2023/11/02 08:08:48;;;;;;;6.60;3.50;;;;;;;10.84;84.08;97347.48;223978;1269;22630;-81
2023/11/02 08:13:51;;;;;;;6.40;4.00;;;;;;;11.13;83.56;97340.39;224174;1286;22958;-80
2023/11/02 08:18:53;;;;;;;6.50;4.60;;;;;;;11.36;83.19;97323.62;224196;1276;22562;-81
2023/11/02 08:23:57;;;;;;;7.80;3.00;;;;;;;11.59;83.01;97319.45;224146;1283;22592;-79
2023/11/02 08:28:59;;;;;;;6.60;3.10;;;;;;;11.82;82.60;97313.72;224217;1269;22580;-82
2023/11/02 08:34:02;;;;;;;8.00;3.90;;;;;;;12.06;82.42;97309.16;224123;1285;22698;-80
2023/11/02 08:39:05;;;;;;;9.00;3.80;;;;;;;12.30;81.88;97315.16;223930;1289;22575;-81
2023/11/02 08:44:08;;;;;;;7.60;3.30;;;;;;;12.52;81.30;97307.30;224140;1286;22637;-80
2023/11/02 08:49:13;;;;;;;5.00;2.60;;;;;;;12.74;81.03;97303.36;224082;1270;22574;-81
2023/11/02 08:54:23;;;;;;;4.70;2.20;;;;;;;12.95;81.00;97296.63;224149;1285;22845;-81
2023/11/02 09:00:07;;;;;;;3.90;1.70;;;;;;;13.18;80.82;97297.73;224164;1287;22564;-81
2023/11/02 09:05:09;;;;;;;3.30;1.60;;;;;;;13.44;80.06;97289.29;224188;1292;22550;-81
2023/11/02 09:10:45;;;;;;;2.80;1.70;;;;;;;13.64;79.35;97282.98;223761;1279;24247;-81
2023/11/02 09:15:57;;;;;;;;;;;;;;;;;;;;;
2023/11/02 09:21:27;;;;;;;2.30;1.40;;;;;;;14.04;78.36;97276.73;224278;1292;22577;-81
2023/11/02 09:26:43;;;;;;;3.10;1.20;;;;;;;14.23;77.72;97268.98;224380;1292;22567;-81
2023/11/02 09:32:12;;;;;;;4.40;1.50;;;;;;;14.40;77.21;97252.62;224101;1277;22730;-78
2023/11/02 09:37:15;;;;;;;2.40;1.20;;;;;;;14.58;76.21;97246.27;224103;1292;23824;-79
2023/11/02 09:42:18;;;;;;;4.30;0.90;;;;;;;14.72;75.67;97238.01;224052;1289;22598;-80
2023/11/02 09:47:47;;;;;;;4.10;1.10;;;;;;;14.86;75.27;97237.81;224201;1285;23685;-81
2023/11/02 09:52:49;;;;;;;2.30;1.30;;;;;;;15.02;74.81;97218.89;224113;1292;22563;-82
2023/11/02 09:58:06;;;;;;;3.90;1.80;;;;;;;15.15;74.44;97214.41;224297;1289;22650;-81
2023/11/02 10:03:32;;;;;;;2.30;1.00;;;;;;;15.29;74.33;97207.43;224194;1292;22556;-80
2023/11/02 10:08:36;;;;;;;2.30;1.20;;;;;;;15.44;73.74;97195.81;224225;1292;22613;-80
2023/11/02 10:13:38;;;;;;;3.80;1.10;;;;;;;15.58;72.95;97193.67;224118;1292;22622;-80
2023/11/02 10:19:00;;;;;;;;;;;;;;;;;;;;;
2023/11/02 10:24:08;;;;;;;3.00;1.30;;;;;;;15.80;71.97;97171.36;224380;1292;22565;-80
2023/11/02 10:29:34;;;;;;;2.50;1.00;;;;;;;15.89;71.40;97167.08;224280;1277;22565;-86
2023/11/02 10:34:37;;;;;;;2.90;1.20;;;;;;;15.98;71.07;97157.15;224371;1291;22613;-87
2023/11/02 10:39:41;;;;;;;2.50;1.10;;;;;;;16.08;70.87;97160.68;224359;1289;22587;-84
2023/11/02 10:45:05;;;;;;;2.40;1.20;;;;;;;16.22;70.78;97155.98;224276;1289;22677;-85
2023/11/02 10:50:24;;;;;;;;;;;;;;;;;;;;;
2023/11/02 10:55:47;;;;;;;3.00;1.40;;;;;;;16.37;69.09;97136.80;224362;1285;23056;-81
2023/11/02 11:00:52;;;;;;;3.80;1.10;;;;;;;16.46;69.13;97128.39;224286;1286;22578;-82
2023/11/02 11:05:56;;;;;;;0.80;0.80;;;;;;;16.42;68.58;97125.68;224456;1292;22689;-81
2023/11/02 11:11:01;;;;;;;2.20;0.80;;;;;;;16.34;68.43;97115.64;224308;1289;22697;-81
2023/11/02 11:16:07;;;;;;;1.50;0.80;;;;;;;16.34;68.33;97104.45;224187;1289;25928;-80
2023/11/02 11:21:20;;;;;;;2.50;0.80;;;;;;;16.46;68.23;97081.58;224309;1284;22899;-81
2023/11/02 11:26:26;;;;;;;2.10;0.80;;;;;;;16.56;68.22;97070.85;224199;1292;22587;-80
2023/11/02 11:32:55;;;;;;;;;;;;;;;;;;;;;
2023/11/02 11:38:00;;;;;;;2.30;0.80;;;;;;;16.75;66.67;97048.05;222205;1295;22568;-81
2023/11/02 11:43:15;;;;;;;3.80;1.00;;;;;;;16.78;67.08;97034.47;223946;1292;22688;-83
2023/11/02 11:48:42;;;;;;;1.90;0.80;;;;;;;16.79;66.46;97022.02;224224;1270;24365;-83
2023/11/02 11:54:11;;;;;;;2.10;0.90;;;;;;;16.76;66.53;97017.31;224359;1286;22549;-82
2023/11/02 12:00:12;;;;;;;1.90;0.80;;;;;;;16.75;66.36;97000.67;224474;1285;22562;-82
2023/11/02 12:06:10;;;;;;;2.80;0.70;;;;;;;16.79;66.73;96985.02;224314;1283;22567;-86
2023/11/02 12:11:14;;;;;;;2.10;0.90;;;;;;;16.88;66.33;96974.38;224045;1283;22572;-79
2023/11/02 12:16:19;;;;;;;5.30;2.20;;;;;;;16.90;65.75;96970.05;224274;1287;22555;-81
2023/11/02 12:21:24;;;;;;;1.70;1.50;;;;;;;16.83;65.53;96966.02;224300;1285;22638;-83
2023/11/02 12:26:30;;;;;;;2.00;0.80;;;;;;;16.69;65.40;96954.80;224251;1285;22571;-81
2023/11/02 12:31:39;;;;;;;2.60;0.80;;;;;;;16.54;65.25;96951.63;223941;1282;22607;-82
2023/11/02 12:36:47;;;;;;;2.00;0.70;;;;;;;16.44;65.13;96948.30;224547;1286;22571;-80
2023/11/02 12:42:00;;;;;;;1.90;0.80;;;;;;;16.46;65.31;96946.64;223917;1291;24912;-82
2023/11/02 12:47:06;;;;;;;2.30;0.70;;;;;;;16.42;64.84;96951.17;223885;1292;25306;-82
2023/11/02 12:53:02;;;;;;;;;;;;;;;;;;;;;
2023/11/02 12:58:17;;;;;;;2.10;0.90;;;;;;;16.36;64.70;96950.48;224356;1288;22575;-82
2023/11/02 13:03:20;;;;;;;1.50;0.70;;;;;;;16.42;65.09;96945.73;224360;1280;22574;-82
2023/11/02 13:08:56;;;;;;;1.50;0.70;;;;;;;16.53;65.15;96947.19;224169;1292;22590;-81
2023/11/02 13:14:08;;;;;;;2.90;0.80;;;;;;;16.64;64.67;96945.74;224284;1289;25309;-80
2023/11/02 13:19:18;;;;;;;2.60;0.60;;;;;;;16.68;64.52;96952.20;224297;1292;22665;-80
2023/11/02 13:24:21;;;;;;;1.70;0.70;;;;;;;16.63;63.92;96945.21;224269;1286;22556;-80
2023/11/02 13:29:26;;;;;;;5.00;0.90;;;;;;;16.58;64.31;96941.21;224225;1291;22570;-80
2023/11/02 13:34:28;;;;;;;1.20;0.80;;;;;;;16.60;64.35;96936.85;224238;1284;22555;-82
2023/11/02 13:39:34;;;;;;;1.60;0.90;;;;;;;16.63;64.42;96927.65;224245;1269;24323;-81
2023/11/02 13:44:39;;;;;;;2.50;1.60;;;;;;;16.63;64.18;96915.23;220185;1283;5397119;-80
2023/11/02 13:49:45;;;;;;;4.20;1.10;;;;;;;16.64;64.37;96922.70;224077;1270;22560;-82
2023/11/02 13:54:48;;;;;;;3.70;1.00;;;;;;;16.73;64.21;96915.11;224350;1291;22584;-86
2023/11/02 13:59:53;;;;;;;3.40;1.20;;;;;;;16.82;64.39;96906.21;223837;1286;22618;-87
2023/11/02 14:05:06;;;;;;;3.20;1.10;;;;;;;16.81;63.72;96909.52;224178;1273;24316;-85
2023/11/02 14:10:15;;;;;;;2.50;1.00;;;;;;;16.70;63.68;96900.77;224268;1283;22578;-83
2023/11/02 14:15:27;;;;;;;2.00;0.80;;;;;;;16.55;63.83;96901.71;224276;1291;22562;-83
2023/11/02 14:20:35;;;;;;;3.60;1.10;;;;;;;16.42;63.97;96888.04;224158;1289;22566;-85
2023/11/02 14:25:40;;;;;;;1.50;1.00;;;;;;;16.28;64.13;96873.65;224025;1286;22552;-86
2023/11/02 14:30:52;;;;;;;2.20;1.20;;;;;;;16.13;63.98;96863.08;224299;1289;22556;-83
2023/11/02 14:36:02;;;;;;;3.80;1.10;;;;;;;16.01;64.03;96843.45;224221;1291;22754;-82
2023/11/02 14:41:06;;;;;;;2.20;1.00;;;;;;;15.89;63.77;96835.27;224683;1289;23233;-83
2023/11/02 14:46:09;;;;;;;3.70;1.30;;;;;;;15.80;63.99;96826.17;224054;1270;22577;-83
2023/11/02 14:51:13;;;;;;;2.50;1.80;;;;;;;15.72;64.02;96818.58;224071;1273;22572;-82
2023/11/02 14:56:22;;;;;;;2.90;1.70;;;;;;;15.66;63.92;96807.45;224278;1273;24348;-80
2023/11/02 15:01:50;;;;;;;3.60;1.60;;;;;;;15.61;63.90;96791.16;224195;1286;23019;-82
2023/11/02 15:07:00;;;;;;;2.00;1.20;;;;;;;15.56;63.84;96786.59;223942;1288;25255;-81
2023/11/02 15:12:08;;;;;;;1.90;1.40;;;;;;;15.49;63.87;96775.08;223761;1292;22559;-81
2023/11/02 15:17:43;;;;;;;;;;;;;;;;;;;;;
2023/11/02 15:24:25;;;;;;;3.90;1.50;;;;;;;15.38;64.08;96777.80;224598;1276;22555;-81
2023/11/02 15:30:15;;;;;;;4.20;1.80;;;;;;;15.31;63.91;96774.50;224528;1292;22559;-82
2023/11/02 15:35:41;;;;;;;3.10;1.80;;;;;;;15.28;64.04;96781.76;224560;1292;22967;-81
2023/11/02 15:41:02;;;;;;;3.50;1.80;;;;;;;15.22;64.01;96775.73;224536;1292;22571;-81
2023/11/02 15:46:43;;;;;;;;;;;;;;;;;;;;;
2023/11/02 15:52:06;;;;;;;4.00;1.90;;;;;;;15.18;63.96;96770.58;224635;1292;22563;-82
2023/11/02 15:57:23;;;;;;;3.00;1.80;;;;;;;15.15;64.04;96763.23;224648;1286;22552;-81
2023/11/02 16:02:46;;;;;;;1.40;1.30;;;;;;;15.11;63.91;96760.05;224555;1292;22616;-81
2023/11/02 16:08:05;;;;;;;4.00;1.40;;;;;;;15.06;63.95;96763.45;224636;1286;22559;-81
2023/11/02 16:13:18;;;;;;;2.80;1.70;;;;;;;15.03;63.82;96755.52;224495;1292;22587;-81
2023/11/02 16:18:34;;;;;;;3.10;1.50;;;;;;;15.01;63.95;96756.09;224545;1292;25444;-81
2023/11/02 16:23:55;;;;;;;4.00;1.70;;;;;;;14.96;64.17;96742.98;224561;1289;22566;-81
2023/11/02 16:29:01;;;;;;;3.90;1.70;;;;;;;14.90;64.26;96736.79;224531;1291;22553;-81
2023/11/02 16:34:28;;;;;;;4.00;1.80;;;;;;;14.86;64.25;96734.28;224586;1292;22604;-81
2023/11/02 16:39:56;;;;;;;4.90;1.90;;;;;;;14.84;64.30;96726.54;224552;1292;22570;-81
2023/11/02 16:45:05;;;;;;;5.20;2.30;;;;;;;14.82;64.45;96727.29;224576;1291;24237;-81
2023/11/02 16:50:16;;;;;;;5.00;2.00;;;;;;;14.78;64.14;96727.39;224425;1292;22567;-81
2023/11/02 16:56:06;;;;;;;3.80;2.00;;;;;;;14.76;64.13;96717.23;224512;1292;22546;-80
2023/11/02 17:01:28;;;;;;;3.20;2.20;;;;;;;14.73;64.56;96711.58;224613;1292;22562;-81
2023/11/02 17:06:52;;;;;;;3.60;2.10;;;;;;;14.72;64.47;96703.39;224391;1289;22569;-82
2023/11/02 17:12:11;;;;;;;6.10;2.10;;;;;;;14.70;64.38;96700.63;224500;1292;22710;-82
2023/11/02 17:17:28;;;;;;;3.00;1.90;;;;;;;14.70;64.63;96696.73;224683;1292;22591;-81
2023/11/02 17:23:09;;;;;;;2.50;1.60;;;;;;;14.72;64.64;96690.53;224560;1292;22567;-81
2023/11/02 17:28:18;;;;;;;2.80;2.00;;;;;;;14.72;64.74;96674.79;224374;1292;22558;-81
2023/11/02 17:33:43;;;;;;;4.00;2.70;;;;;;;14.74;65.00;96664.16;224536;1292;22566;-82
2023/11/02 17:39:18;;;;;;;3.10;1.90;;;;;;;14.75;64.92;96651.93;224461;1291;22577;-81
2023/11/02 17:44:40;;;;;;;3.80;2.00;;;;;;;14.75;64.92;96648.05;224657;1292;24390;-82
2023/11/02 17:49:58;;;;;;;5.90;2.00;;;;;;;14.74;64.96;96640.50;224623;1292;22622;-82
2023/11/02 17:55:10;;;;;;;4.80;1.70;;;;;;;14.75;65.28;96636.30;224485;1292;25435;-82
2023/11/02 18:00:36;;;;;;;;;;;;;;;;;;;;;
2023/11/02 18:05:57;;;;;;;3.40;1.40;;;;;;;14.74;65.51;96627.16;224686;1292;23362;-81
2023/11/02 18:11:40;;;;;;;3.70;1.90;;;;;;;14.76;65.25;96624.30;224556;1276;22581;-81
2023/11/02 18:17:41;;;;;;;4.00;1.90;;;;;;;14.77;65.39;96616.69;224674;1292;22559;-82
2023/11/02 18:22:45;;;;;;;3.10;1.90;;;;;;;14.82;65.50;96617.06;224654;1292;22560;-80
2023/11/02 18:28:00;;;;;;;1.80;1.40;;;;;;;14.83;65.79;96614.55;224558;1292;22627;-81
2023/11/02 18:33:32;;;;;;;2.20;1.50;;;;;;;14.88;65.62;96607.79;224568;1282;22631;-82
2023/11/02 18:39:00;;;;;;;;;;;;;;;14.88;65.37;96598.54;224637;1292;22650;-82
2023/11/02 18:44:17;;;;;;;1.90;1.30;;;;;;;14.87;65.60;96595.71;224532;1292;22599;-82
2023/11/02 18:49:26;;;;;;;3.40;1.90;;;;;;;14.88;65.64;96597.63;224456;1289;22566;-81
2023/11/02 18:54:51;;;;;;;5.80;1.50;;;;;;;14.88;65.78;96593.64;224416;1292;22552;-82
2023/11/02 19:00:38;;;;;;;;;;;;;;;;;;;;;
2023/11/02 19:06:06;;;;;;;2.90;1.70;;;;;;;14.87;65.59;96604.11;224506;1286;23286;-83
2023/11/02 19:11:19;;;;;;;2.00;1.60;;;;;;;14.88;65.60;96605.60;224382;1291;22566;-81
2023/11/02 19:16:49;;;;;;;;;;;;;;;;;;;;;
2023/11/02 19:22:20;;;;;;;4.90;1.80;;;;;;;14.91;65.79;96593.69;224567;1292;22593;-82
2023/11/02 19:27:38;;;;;;;3.30;1.80;;;;;;;14.90;65.87;96596.45;224516;1292;22562;-81
2023/11/02 19:32:41;;;;;;;3.30;1.80;;;;;;;14.90;65.82;96596.02;224509;1292;22560;-81
2023/11/02 19:38:30;;;;;;;2.60;2.10;;;;;;;14.89;65.99;96591.36;224461;1292;22577;-81
2023/11/02 19:44:15;;;;;;;3.00;2.10;;;;;;;14.89;66.19;96595.72;223986;1292;24262;-82
2023/11/02 19:49:40;;;;;;;2.40;1.70;;;;;;;14.88;66.20;96590.77;223022;1292;22562;-81
2023/11/02 19:54:46;;;;;;;1.80;1.60;;;;;;;14.87;66.29;96588.33;222955;1298;22563;-81
2023/11/02 19:59:53;;;;;;;2.20;1.90;;;;;;;14.86;66.44;96573.85;222986;1298;23190;-82
2023/11/02 20:05:36;;;;;;;;;;;;;;;;;;;;;
2023/11/02 20:11:42;;;;;;;4.00;1.80;;;;;;;14.85;66.43;96571.35;223111;1292;22581;-81
2023/11/02 20:17:35;;;;;;;3.30;1.90;;;;;;;14.87;66.46;96565.77;224328;1292;23340;-81
2023/11/02 20:22:53;;;;;;;5.20;2.00;;;;;;;14.86;66.66;96560.13;224671;1288;25996;-82
2023/11/02 20:28:06;;;;;;;3.10;1.70;;;;;;;14.85;66.62;96557.22;224623;1289;22567;-81
2023/11/02 20:33:46;;;;;;;3.10;1.90;;;;;;;14.80;66.82;96548.05;224522;1286;22818;-82
2023/11/02 20:39:37;;;;;;;2.90;2.10;;;;;;;14.78;66.96;96540.39;224370;1292;22543;-82
2023/11/02 20:44:46;;;;;;;2.80;2.10;;;;;;;14.77;66.86;96539.17;224663;1280;22562;-82
2023/11/02 20:50:32;;;;;;;3.50;2.20;;;;;;;14.76;66.95;96535.02;223367;1296;22563;-81
2023/11/02 20:56:33;;;;;;;2.80;2.20;;;;;;;14.77;67.04;96529.27;223425;1297;22710;-81
2023/11/02 21:01:55;;;;;;;;;;;;;;;;;;;;;
2023/11/02 21:08:07;;;;;;;3.70;1.90;;;;;;;14.69;66.93;96521.27;224260;1271;22563;-81
2023/11/02 21:14:06;;;;;;;;;;;;;;;;;;;;;
2023/11/02 21:19:56;;;;;;;;;;;;;;;;;;;;;
2023/11/02 21:25:12;;;;;;;2.40;1.70;;;;;;;14.67;67.22;96496.04;224637;1292;22627;-81
2023/11/02 21:31:02;;;;;;;;;;;;;;;;;;;;;
2023/11/02 21:37:08;;;;;;;3.10;1.90;;;;;;;14.67;67.09;96494.28;224582;1292;22577;-81
2023/11/02 21:42:21;;;;;;;3.90;2.20;;;;;;;14.67;66.97;96500.29;224392;1292;22533;-82
2023/11/02 21:48:00;;;;;;;1.90;1.60;;;;;;;14.64;67.19;96498.16;224534;1292;22599;-81
2023/11/02 21:53:18;;;;;;;3.10;2.00;;;;;;;14.62;66.95;96499.34;224596;1292;22595;-81
2023/11/02 21:58:35;;;;;;;8.20;6.00;;;;;;;14.62;67.04;96498.91;224620;1289;22603;-81
2023/11/02 22:04:15;;;;;;;2.80;1.60;;;;;;;14.61;67.07;96484.72;224546;1292;23114;-82
2023/11/02 22:10:05;;;;;;;;;;;;;;;;;;;;;
2023/11/02 22:15:53;;;;;;;2.00;1.50;;;;;;;14.58;67.14;96483.61;224311;1292;22563;-81
2023/11/02 22:21:41;;;;;;;2.90;1.40;;;;;;;14.60;67.11;96483.02;224309;1292;22585;-81
2023/11/02 22:26:56;;;;;;;1.60;1.40;;;;;;;14.63;67.17;96471.80;224290;1292;22666;-81
2023/11/02 22:33:05;;;;;;;1.80;1.60;;;;;;;14.61;66.92;96471.73;224576;1292;22563;-81
2023/11/02 22:38:24;;;;;;;2.00;1.50;;;;;;;14.59;67.18;96440.98;224473;1291;22911;-81
2023/11/02 22:43:42;;;;;;;1.50;1.40;;;;;;;14.57;66.88;96423.66;224485;1292;22561;-81
2023/11/02 22:49:54;;;;;;;2.00;1.30;;;;;;;14.57;66.93;96412.55;224589;1289;24332;-81
2023/11/02 22:55:30;;;;;;;4.40;1.50;;;;;;;14.61;66.56;96401.48;224528;1292;22563;-81
2023/11/02 23:00:59;;;;;;;;;;;;;;;14.66;66.91;96391.95;224679;1292;22544;-82
2023/11/02 23:07:18;;;;;;;3.00;1.60;;;;;;;14.68;66.79;96390.33;224507;1292;22556;-81
2023/11/02 23:12:48;;;;;;;2.40;1.30;;;;;;;14.66;66.56;96391.42;224600;1291;22565;-81
2023/11/02 23:18:53;;;;;;;;;;;;;;;;;;;;;
2023/11/02 23:24:08;;;;;;;2.90;1.60;;;;;;;14.61;66.93;96376.29;224537;1292;24262;-81
2023/11/02 23:29:43;;;;;;;3.50;2.00;;;;;;;14.62;67.08;96365.38;224401;1292;22577;-81
2023/11/02 23:35:27;;;;;;;;;;;;;;;;;;;;;
2023/11/02 23:40:40;;;;;;;2.00;1.50;;;;;;;14.62;67.45;96366.88;224206;1285;22547;-82
2023/11/02 23:45:51;;;;;;;3.60;2.20;;;;;;;14.57;68.21;96374.23;224554;1292;22550;-81
2023/11/02 23:51:05;;;;;;;4.80;2.70;;;;;;;14.45;68.33;96370.61;224618;1292;24304;-81
2023/11/02 23:56:34;;;;;;;;;;;;;;;;;;;;;
